sensor_id;sensor_type;location;lat;lon;timestamp;temperature;humidity
13086;DHT22;6609;49.882;8.664;2022-08-03T00:04:04;20.70;52.40
13086;DHT22;6609;49.882;8.664;2022-08-03T00:06:30;20.70;52.60
13086;DHT22;6609;49.882;8.664;2022-08-03T00:08:57;20.60;52.60
13086;DHT22;6609;49.882;8.664;2022-08-03T00:11:24;20.60;52.40
13086;DHT22;6609;49.882;8.664;2022-08-03T00:21:16;20.50;52.80
13086;DHT22;6609;49.882;8.664;2022-08-03T00:23:43;20.50;52.80
13086;DHT22;6609;49.882;8.664;2022-08-03T00:26:10;20.50;52.40
13086;DHT22;6609;49.882;8.664;2022-08-03T00:31:03;20.40;51.40
13086;DHT22;6609;49.882;8.664;2022-08-03T00:33:32;20.40;51.40
13086;DHT22;6609;49.882;8.664;2022-08-03T00:35:58;20.40;51.40
13086;DHT22;6609;49.882;8.664;2022-08-03T00:38:25;20.40;51.40
13086;DHT22;6609;49.882;8.664;2022-08-03T00:43:24;20.30;51.00
13086;DHT22;6609;49.882;8.664;2022-08-03T00:45:51;20.30;51.30
13086;DHT22;6609;49.882;8.664;2022-08-03T00:53:14;20.20;51.00
13086;DHT22;6609;49.882;8.664;2022-08-03T01:00:38;20.20;51.20
13086;DHT22;6609;49.882;8.664;2022-08-03T01:08:15;19.90;51.00
13086;DHT22;6609;49.882;8.664;2022-08-03T01:10:56;20.00;51.50
13086;DHT22;6609;49.882;8.664;2022-08-03T01:13:29;19.90;52.00
13086;DHT22;6609;49.882;8.664;2022-08-03T01:18:42;19.80;52.60
13086;DHT22;6609;49.882;8.664;2022-08-03T01:21:13;19.80;52.90
13086;DHT22;6609;49.882;8.664;2022-08-03T01:23:56;19.70;53.00
13086;DHT22;6609;49.882;8.664;2022-08-03T01:26:43;19.70;53.30
13086;DHT22;6609;49.882;8.664;2022-08-03T01:29:47;19.70;53.20
13086;DHT22;6609;49.882;8.664;2022-08-03T01:37:15;19.60;53.50
13086;DHT22;6609;49.882;8.664;2022-08-03T01:39:45;19.60;53.60
13086;DHT22;6609;49.882;8.664;2022-08-03T01:42:13;19.60;53.60
13086;DHT22;6609;49.882;8.664;2022-08-03T01:47:14;19.50;53.80
13086;DHT22;6609;49.882;8.664;2022-08-03T01:49:43;19.50;54.00
13086;DHT22;6609;49.882;8.664;2022-08-03T01:52:11;19.50;54.00
13086;DHT22;6609;49.882;8.664;2022-08-03T01:54:44;19.40;54.00
13086;DHT22;6609;49.882;8.664;2022-08-03T01:59:42;19.40;54.40
13086;DHT22;6609;49.882;8.664;2022-08-03T02:02:11;19.30;54.40
13086;DHT22;6609;49.882;8.664;2022-08-03T02:04:40;19.40;54.50
13086;DHT22;6609;49.882;8.664;2022-08-03T02:07:08;19.40;54.80
13086;DHT22;6609;49.882;8.664;2022-08-03T02:09:37;19.40;54.80
13086;DHT22;6609;49.882;8.664;2022-08-03T02:12:07;19.40;54.70
13086;DHT22;6609;49.882;8.664;2022-08-03T02:17:03;19.30;54.40
13086;DHT22;6609;49.882;8.664;2022-08-03T02:19:31;19.30;54.40
13086;DHT22;6609;49.882;8.664;2022-08-03T02:21:58;19.30;54.70
13086;DHT22;6609;49.882;8.664;2022-08-03T02:24:25;19.30;54.80
13086;DHT22;6609;49.882;8.664;2022-08-03T02:34:22;19.10;55.50
13086;DHT22;6609;49.882;8.664;2022-08-03T02:39:20;19.10;55.70
13086;DHT22;6609;49.882;8.664;2022-08-03T02:41:51;19.10;55.90
13086;DHT22;6609;49.882;8.664;2022-08-03T02:44:24;19.10;56.00
13086;DHT22;6609;49.882;8.664;2022-08-03T02:46:53;19.10;56.30
13086;DHT22;6609;49.882;8.664;2022-08-03T02:49:23;19.00;56.60
13086;DHT22;6609;49.882;8.664;2022-08-03T02:54:19;18.90;56.90
13086;DHT22;6609;49.882;8.664;2022-08-03T02:59:17;18.90;57.10
13086;DHT22;6609;49.882;8.664;2022-08-03T03:06:41;18.80;56.90
13086;DHT22;6609;49.882;8.664;2022-08-03T03:11:37;18.70;57.10
13086;DHT22;6609;49.882;8.664;2022-08-03T03:14:04;18.70;57.50
13086;DHT22;6609;49.882;8.664;2022-08-03T03:19:01;18.70;58.40
13086;DHT22;6609;49.882;8.664;2022-08-03T03:21:29;18.60;58.80
13086;DHT22;6609;49.882;8.664;2022-08-03T03:23:58;18.70;59.20
13086;DHT22;6609;49.882;8.664;2022-08-03T03:26:25;18.60;59.50
13086;DHT22;6609;49.882;8.664;2022-08-03T03:33:48;18.50;59.30
13086;DHT22;6609;49.882;8.664;2022-08-03T03:36:15;18.50;59.50
13086;DHT22;6609;49.882;8.664;2022-08-03T03:41:11;18.50;59.90
13086;DHT22;6609;49.882;8.664;2022-08-03T03:43:38;18.50;60.20
13086;DHT22;6609;49.882;8.664;2022-08-03T03:48:32;18.50;60.20
13086;DHT22;6609;49.882;8.664;2022-08-03T03:50:59;18.50;60.10
13086;DHT22;6609;49.882;8.664;2022-08-03T03:53:26;18.40;60.20
13086;DHT22;6609;49.882;8.664;2022-08-03T03:58:21;18.30;60.30
13086;DHT22;6609;49.882;8.664;2022-08-03T04:00:48;18.30;60.70
13086;DHT22;6609;49.882;8.664;2022-08-03T04:05:42;18.30;61.00
13086;DHT22;6609;49.882;8.664;2022-08-03T04:08:27;18.30;61.10
13086;DHT22;6609;49.882;8.664;2022-08-03T04:11:15;18.30;60.90
13086;DHT22;6609;49.882;8.664;2022-08-03T04:13:49;18.20;60.80
13086;DHT22;6609;49.882;8.664;2022-08-03T04:18:48;18.20;60.90
13086;DHT22;6609;49.882;8.664;2022-08-03T04:21:17;18.20;60.80
13086;DHT22;6609;49.882;8.664;2022-08-03T04:26:16;18.20;60.90
13086;DHT22;6609;49.882;8.664;2022-08-03T04:28:47;18.20;60.90
13086;DHT22;6609;49.882;8.664;2022-08-03T04:31:16;18.20;60.90
13086;DHT22;6609;49.882;8.664;2022-08-03T04:36:15;18.20;61.10
13086;DHT22;6609;49.882;8.664;2022-08-03T04:38:54;18.20;61.50
13086;DHT22;6609;49.882;8.664;2022-08-03T04:43:54;16.70;60.20
13086;DHT22;6609;49.882;8.664;2022-08-03T04:46:22;18.30;62.00
13086;DHT22;6609;49.882;8.664;2022-08-03T04:48:50;18.20;62.20
13086;DHT22;6609;49.882;8.664;2022-08-03T04:56:11;18.30;62.50
13086;DHT22;6609;49.882;8.664;2022-08-03T04:58:38;18.30;62.70
13086;DHT22;6609;49.882;8.664;2022-08-03T05:06:00;18.40;62.80
13086;DHT22;6609;49.882;8.664;2022-08-03T05:08:27;18.50;62.70
13086;DHT22;6609;49.882;8.664;2022-08-03T05:10:54;18.60;62.90
13086;DHT22;6609;49.882;8.664;2022-08-03T05:15:48;18.70;62.40
13086;DHT22;6609;49.882;8.664;2022-08-03T05:23:10;18.90;62.20
13086;DHT22;6609;49.882;8.664;2022-08-03T05:25:37;19.00;62.20
13086;DHT22;6609;49.882;8.664;2022-08-03T05:30:30;19.20;62.10
13086;DHT22;6609;49.882;8.664;2022-08-03T05:35:26;19.30;61.80
13086;DHT22;6609;49.882;8.664;2022-08-03T05:40:21;19.50;61.60
13086;DHT22;6609;49.882;8.664;2022-08-03T05:45:15;19.80;61.30
13086;DHT22;6609;49.882;8.664;2022-08-03T05:57:33;20.40;60.30
13086;DHT22;6609;49.882;8.664;2022-08-03T06:00:01;20.50;59.80
13086;DHT22;6609;49.882;8.664;2022-08-03T06:04:55;20.80;59.10
13086;DHT22;6609;49.882;8.664;2022-08-03T06:12:17;21.20;58.90
13086;DHT22;6609;49.882;8.664;2022-08-03T06:17:11;21.40;57.50
13086;DHT22;6609;49.882;8.664;2022-08-03T06:19:38;21.60;57.20
13086;DHT22;6609;49.882;8.664;2022-08-03T06:27:00;22.00;56.10
13086;DHT22;6609;49.882;8.664;2022-08-03T06:31:54;22.40;55.50
13086;DHT22;6609;49.882;8.664;2022-08-03T06:34:20;22.60;54.00
13086;DHT22;6609;49.882;8.664;2022-08-03T06:44:12;23.20;51.10
13086;DHT22;6609;49.882;8.664;2022-08-03T06:46:39;23.30;50.70
13086;DHT22;6609;49.882;8.664;2022-08-03T06:49:06;23.50;49.70
13086;DHT22;6609;49.882;8.664;2022-08-03T06:51:33;23.60;49.30
13086;DHT22;6609;49.882;8.664;2022-08-03T07:01:22;24.20;45.70
13086;DHT22;6609;49.882;8.664;2022-08-03T07:03:49;24.30;44.70
13086;DHT22;6609;49.882;8.664;2022-08-03T07:06:16;24.40;43.90
13086;DHT22;6609;49.882;8.664;2022-08-03T07:08:42;24.50;43.10
13086;DHT22;6609;49.882;8.664;2022-08-03T07:11:09;24.70;43.20
13086;DHT22;6609;49.882;8.664;2022-08-03T07:13:35;24.80;43.20
13086;DHT22;6609;49.882;8.664;2022-08-03T07:18:31;25.00;41.60
13086;DHT22;6609;49.882;8.664;2022-08-03T07:20:57;25.10;41.70
13086;DHT22;6609;49.882;8.664;2022-08-03T07:23:24;25.30;41.40
13086;DHT22;6609;49.882;8.664;2022-08-03T07:25:51;25.40;39.80
13086;DHT22;6609;49.882;8.664;2022-08-03T07:28:18;25.60;40.20
13086;DHT22;6609;49.882;8.664;2022-08-03T07:30:45;25.70;39.80
13086;DHT22;6609;49.882;8.664;2022-08-03T07:33:12;25.90;38.80
13086;DHT22;6609;49.882;8.664;2022-08-03T07:35:41;26.00;38.60
13086;DHT22;6609;49.882;8.664;2022-08-03T07:38:08;26.10;37.60
13086;DHT22;6609;49.882;8.664;2022-08-03T07:40:34;26.20;37.30
13086;DHT22;6609;49.882;8.664;2022-08-03T07:43:01;26.40;36.80
13086;DHT22;6609;49.882;8.664;2022-08-03T07:47:56;26.70;36.70
13086;DHT22;6609;49.882;8.664;2022-08-03T07:50:23;26.80;36.20
13086;DHT22;6609;49.882;8.664;2022-08-03T07:52:52;26.90;34.30
13086;DHT22;6609;49.882;8.664;2022-08-03T07:55:22;27.00;34.60
13086;DHT22;6609;49.882;8.664;2022-08-03T07:58:00;27.20;33.90
13086;DHT22;6609;49.882;8.664;2022-08-03T08:00:27;27.30;32.60
13086;DHT22;6609;49.882;8.664;2022-08-03T08:02:54;27.40;32.40
13086;DHT22;6609;49.882;8.664;2022-08-03T08:05:20;27.50;32.60
13086;DHT22;6609;49.882;8.664;2022-08-03T08:07:47;27.70;32.50
13086;DHT22;6609;49.882;8.664;2022-08-03T08:10:15;27.90;32.30
13086;DHT22;6609;49.882;8.664;2022-08-03T08:12:42;28.00;31.50
13086;DHT22;6609;49.882;8.664;2022-08-03T08:15:08;28.20;30.20
13086;DHT22;6609;49.882;8.664;2022-08-03T08:17:43;28.30;29.90
13086;DHT22;6609;49.882;8.664;2022-08-03T08:20:13;28.40;29.60
13086;DHT22;6609;49.882;8.664;2022-08-03T08:25:08;28.70;29.70
13086;DHT22;6609;49.882;8.664;2022-08-03T08:27:41;28.80;30.40
13086;DHT22;6609;49.882;8.664;2022-08-03T08:35:04;29.30;28.30
13086;DHT22;6609;49.882;8.664;2022-08-03T08:37:31;29.40;29.30
13086;DHT22;6609;49.882;8.664;2022-08-03T08:39:58;29.60;28.50
13086;DHT22;6609;49.882;8.664;2022-08-03T08:42:25;29.70;28.70
13086;DHT22;6609;49.882;8.664;2022-08-03T08:44:53;29.80;28.90
13086;DHT22;6609;49.882;8.664;2022-08-03T08:47:24;30.00;28.30
13086;DHT22;6609;49.882;8.664;2022-08-03T08:49:52;30.20;27.40
13086;DHT22;6609;49.882;8.664;2022-08-03T08:52:23;30.30;26.00
13086;DHT22;6609;49.882;8.664;2022-08-03T08:54:51;30.50;26.10
13086;DHT22;6609;49.882;8.664;2022-08-03T08:57:21;30.60;25.50
13086;DHT22;6609;49.882;8.664;2022-08-03T08:59:49;30.70;24.10
13086;DHT22;6609;49.882;8.664;2022-08-03T09:02:17;30.90;24.40
13086;DHT22;6609;49.882;8.664;2022-08-03T09:04:44;31.00;24.30
13086;DHT22;6609;49.882;8.664;2022-08-03T09:09:40;31.40;25.00
13086;DHT22;6609;49.882;8.664;2022-08-03T09:12:08;31.40;23.50
13086;DHT22;6609;49.882;8.664;2022-08-03T09:14:34;31.60;23.40
13086;DHT22;6609;49.882;8.664;2022-08-03T09:17:03;31.70;22.40
13086;DHT22;6609;49.882;8.664;2022-08-03T09:19:32;31.90;22.70
13086;DHT22;6609;49.882;8.664;2022-08-03T09:22:17;32.10;23.30
13086;DHT22;6609;49.882;8.664;2022-08-03T09:24:54;32.30;22.90
13086;DHT22;6609;49.882;8.664;2022-08-03T09:27:22;32.50;22.30
13086;DHT22;6609;49.882;8.664;2022-08-03T09:29:49;32.70;21.10
13086;DHT22;6609;49.882;8.664;2022-08-03T09:32:19;32.80;20.20
13086;DHT22;6609;49.882;8.664;2022-08-03T09:34:48;33.00;20.40
13086;DHT22;6609;49.882;8.664;2022-08-03T09:37:17;33.10;19.90
13086;DHT22;6609;49.882;8.664;2022-08-03T09:39:44;33.40;20.60
13086;DHT22;6609;49.882;8.664;2022-08-03T09:42:12;33.60;20.00
13086;DHT22;6609;49.882;8.664;2022-08-03T09:44:40;34.00;19.90
13086;DHT22;6609;49.882;8.664;2022-08-03T09:47:08;34.30;18.30
13086;DHT22;6609;49.882;8.664;2022-08-03T09:49:35;34.50;18.70
13086;DHT22;6609;49.882;8.664;2022-08-03T09:52:13;35.00;19.30
13086;DHT22;6609;49.882;8.664;2022-08-03T09:54:41;35.40;18.30
13086;DHT22;6609;49.882;8.664;2022-08-03T09:57:19;35.70;16.80
13086;DHT22;6609;49.882;8.664;2022-08-03T10:02:21;36.40;15.60
13086;DHT22;6609;49.882;8.664;2022-08-03T10:07:19;37.10;15.30
13086;DHT22;6609;49.882;8.664;2022-08-03T10:09:55;37.40;13.70
13086;DHT22;6609;49.882;8.664;2022-08-03T10:12:22;37.60;13.00
13086;DHT22;6609;49.882;8.664;2022-08-03T10:14:49;37.50;12.70
13086;DHT22;6609;49.882;8.664;2022-08-03T10:19:43;37.70;12.70
13086;DHT22;6609;49.882;8.664;2022-08-03T10:22:13;37.70;12.20
13086;DHT22;6609;49.882;8.664;2022-08-03T10:24:47;37.70;13.00
13086;DHT22;6609;49.882;8.664;2022-08-03T10:27:15;38.00;13.10
13086;DHT22;6609;49.882;8.664;2022-08-03T10:29:46;37.90;12.60
13086;DHT22;6609;49.882;8.664;2022-08-03T10:32:18;38.30;13.30
13086;DHT22;6609;49.882;8.664;2022-08-03T10:34:49;38.80;12.40
13086;DHT22;6609;49.882;8.664;2022-08-03T10:37:16;39.20;12.00
13086;DHT22;6609;49.882;8.664;2022-08-03T10:39:46;39.70;11.80
13086;DHT22;6609;49.882;8.664;2022-08-03T10:42:22;40.20;10.40
13086;DHT22;6609;49.882;8.664;2022-08-03T10:44:52;40.60;11.10
13086;DHT22;6609;49.882;8.664;2022-08-03T10:47:21;40.90;10.00
13086;DHT22;6609;49.882;8.664;2022-08-03T10:49:48;40.90;9.60
13086;DHT22;6609;49.882;8.664;2022-08-03T10:52:15;41.20;9.40
13086;DHT22;6609;49.882;8.664;2022-08-03T10:54:43;41.40;9.80
13086;DHT22;6609;49.882;8.664;2022-08-03T10:57:48;41.70;10.00
13086;DHT22;6609;49.882;8.664;2022-08-03T11:00:16;42.00;9.50
13086;DHT22;6609;49.882;8.664;2022-08-03T11:03:04;42.30;9.20
13086;DHT22;6609;49.882;8.664;2022-08-03T11:05:32;42.70;7.50
13086;DHT22;6609;49.882;8.664;2022-08-03T11:08:33;42.70;6.80
13086;DHT22;6609;49.882;8.664;2022-08-03T11:11:02;42.80;7.40
13086;DHT22;6609;49.882;8.664;2022-08-03T11:13:57;43.00;7.40
13086;DHT22;6609;49.882;8.664;2022-08-03T11:16:25;43.00;6.70
13086;DHT22;6609;49.882;8.664;2022-08-03T11:18:56;42.90;6.90
13086;DHT22;6609;49.882;8.664;2022-08-03T11:24:05;42.80;8.30
13086;DHT22;6609;49.882;8.664;2022-08-03T11:29:26;43.00;6.70
13086;DHT22;6609;49.882;8.664;2022-08-03T11:31:53;42.70;8.90
13086;DHT22;6609;49.882;8.664;2022-08-03T11:34:20;42.50;9.20
13086;DHT22;6609;49.882;8.664;2022-08-03T11:37:22;42.60;9.20
13086;DHT22;6609;49.882;8.664;2022-08-03T11:39:52;42.50;8.80
13086;DHT22;6609;49.882;8.664;2022-08-03T11:42:43;42.50;8.90
13086;DHT22;6609;49.882;8.664;2022-08-03T11:45:14;42.50;9.20
13086;DHT22;6609;49.882;8.664;2022-08-03T11:47:41;42.40;9.90
13086;DHT22;6609;49.882;8.664;2022-08-03T11:50:09;42.40;8.80
13086;DHT22;6609;49.882;8.664;2022-08-03T11:52:39;42.30;7.60
13086;DHT22;6609;49.882;8.664;2022-08-03T11:55:15;42.00;8.60
13086;DHT22;6609;49.882;8.664;2022-08-03T11:57:43;41.30;7.40
13086;DHT22;6609;49.882;8.664;2022-08-03T12:00:27;40.40;8.40
13086;DHT22;6609;49.882;8.664;2022-08-03T12:03:03;39.80;9.60
13086;DHT22;6609;49.882;8.664;2022-08-03T12:05:34;39.20;9.80
13086;DHT22;6609;49.882;8.664;2022-08-03T12:10:29;38.70;10.60
13086;DHT22;6609;49.882;8.664;2022-08-03T12:15:29;38.60;11.90
13086;DHT22;6609;49.882;8.664;2022-08-03T12:20:27;38.50;12.90
13086;DHT22;6609;49.882;8.664;2022-08-03T12:23:01;38.40;12.90
13086;DHT22;6609;49.882;8.664;2022-08-03T12:28:07;38.40;13.10
13086;DHT22;6609;49.882;8.664;2022-08-03T12:30:36;38.20;12.70
13086;DHT22;6609;49.882;8.664;2022-08-03T12:33:20;38.00;13.70
13086;DHT22;6609;49.882;8.664;2022-08-03T12:35:49;38.00;12.50
13086;DHT22;6609;49.882;8.664;2022-08-03T12:38:21;37.90;11.40
13086;DHT22;6609;49.882;8.664;2022-08-03T12:40:59;37.70;11.30
13086;DHT22;6609;49.882;8.664;2022-08-03T12:43:26;37.40;12.20
13086;DHT22;6609;49.882;8.664;2022-08-03T12:46:08;37.20;12.60
13086;DHT22;6609;49.882;8.664;2022-08-03T12:51:08;37.10;13.20
13086;DHT22;6609;49.882;8.664;2022-08-03T12:56:03;36.80;13.20
13086;DHT22;6609;49.882;8.664;2022-08-03T12:58:32;36.70;13.80
13086;DHT22;6609;49.882;8.664;2022-08-03T13:00:59;36.70;14.40
13086;DHT22;6609;49.882;8.664;2022-08-03T13:03:27;36.70;13.90
13086;DHT22;6609;49.882;8.664;2022-08-03T13:08:23;36.70;14.70
13086;DHT22;6609;49.882;8.664;2022-08-03T13:18:12;36.60;14.20
13086;DHT22;6609;49.882;8.664;2022-08-03T13:20:41;36.50;15.40
13086;DHT22;6609;49.882;8.664;2022-08-03T13:23:08;36.50;13.90
13086;DHT22;6609;49.882;8.664;2022-08-03T13:28:02;36.40;14.40
13086;DHT22;6609;49.882;8.664;2022-08-03T13:30:30;36.30;14.30
13086;DHT22;6609;49.882;8.664;2022-08-03T13:32:57;36.30;14.80
13086;DHT22;6609;49.882;8.664;2022-08-03T13:35:25;36.20;14.20
13086;DHT22;6609;49.882;8.664;2022-08-03T13:37:53;36.10;14.40
13086;DHT22;6609;49.882;8.664;2022-08-03T13:40:20;36.10;15.60
13086;DHT22;6609;49.882;8.664;2022-08-03T13:45:13;35.90;16.30
13086;DHT22;6609;49.882;8.664;2022-08-03T13:50:07;35.80;14.90
13086;DHT22;6609;49.882;8.664;2022-08-03T13:52:35;35.70;16.00
13086;DHT22;6609;49.882;8.664;2022-08-03T13:55:05;35.70;15.20
13086;DHT22;6609;49.882;8.664;2022-08-03T14:02:27;35.70;14.90
13086;DHT22;6609;49.882;8.664;2022-08-03T14:04:53;35.60;14.80
13086;DHT22;6609;49.882;8.664;2022-08-03T14:07:20;35.60;15.50
13086;DHT22;6609;49.882;8.664;2022-08-03T14:12:15;35.60;15.70
13086;DHT22;6609;49.882;8.664;2022-08-03T14:14:42;35.60;14.40
13086;DHT22;6609;49.882;8.664;2022-08-03T14:17:09;35.40;15.40
13086;DHT22;6609;49.882;8.664;2022-08-03T14:19:35;35.40;15.60
13086;DHT22;6609;49.882;8.664;2022-08-03T14:26:56;35.30;15.50
13086;DHT22;6609;49.882;8.664;2022-08-03T14:29:24;35.30;15.40
13086;DHT22;6609;49.882;8.664;2022-08-03T14:39:12;35.20;16.00
13086;DHT22;6609;49.882;8.664;2022-08-03T14:41:39;35.20;15.50
13086;DHT22;6609;49.882;8.664;2022-08-03T14:46:34;35.10;16.20
13086;DHT22;6609;49.882;8.664;2022-08-03T14:49:01;35.00;16.40
13086;DHT22;6609;49.882;8.664;2022-08-03T14:51:29;35.00;16.30
13086;DHT22;6609;49.882;8.664;2022-08-03T15:03:46;34.70;15.80
13086;DHT22;6609;49.882;8.664;2022-08-03T15:06:13;34.60;16.40
13086;DHT22;6609;49.882;8.664;2022-08-03T15:11:07;34.70;16.70
13086;DHT22;6609;49.882;8.664;2022-08-03T15:13:34;34.60;16.10
13086;DHT22;6609;49.882;8.664;2022-08-03T15:16:00;34.50;16.00
13086;DHT22;6609;49.882;8.664;2022-08-03T15:18:27;34.40;16.50
13086;DHT22;6609;49.882;8.664;2022-08-03T15:20:55;34.40;16.40
13086;DHT22;6609;49.882;8.664;2022-08-03T15:38:08;34.20;16.70
13086;DHT22;6609;49.882;8.664;2022-08-03T15:43:02;34.10;16.80
13086;DHT22;6609;49.882;8.664;2022-08-03T15:50:23;34.00;17.40
13086;DHT22;6609;49.882;8.664;2022-08-03T15:52:49;34.10;17.40
13086;DHT22;6609;49.882;8.664;2022-08-03T15:55:17;34.00;16.90
13086;DHT22;6609;49.882;8.664;2022-08-03T15:57:44;34.00;17.30
13086;DHT22;6609;49.882;8.664;2022-08-03T16:00:12;33.90;17.10
13086;DHT22;6609;49.882;8.664;2022-08-03T16:02:39;33.90;17.20
13086;DHT22;6609;49.882;8.664;2022-08-03T16:05:06;33.90;17.30
13086;DHT22;6609;49.882;8.664;2022-08-03T16:07:33;33.80;16.60
13086;DHT22;6609;49.882;8.664;2022-08-03T16:10:12;33.80;16.30
13086;DHT22;6609;49.882;8.664;2022-08-03T16:12:40;33.80;16.70
13086;DHT22;6609;49.882;8.664;2022-08-03T16:15:08;33.80;16.70
13086;DHT22;6609;49.882;8.664;2022-08-03T16:17:35;33.80;17.10
13086;DHT22;6609;49.882;8.664;2022-08-03T16:20:03;33.80;17.70
13086;DHT22;6609;49.882;8.664;2022-08-03T16:22:29;33.80;17.60
13086;DHT22;6609;49.882;8.664;2022-08-03T16:27:24;33.70;17.70
13086;DHT22;6609;49.882;8.664;2022-08-03T16:29:52;33.60;17.80
13086;DHT22;6609;49.882;8.664;2022-08-03T16:37:13;33.50;18.40
13086;DHT22;6609;49.882;8.664;2022-08-03T16:42:07;33.40;19.10
13086;DHT22;6609;49.882;8.664;2022-08-03T16:44:33;33.30;18.70
13086;DHT22;6609;49.882;8.664;2022-08-03T16:47:02;33.20;19.20
13086;DHT22;6609;49.882;8.664;2022-08-03T16:56:50;33.00;19.10
13086;DHT22;6609;49.882;8.664;2022-08-03T17:04:14;32.80;19.20
13086;DHT22;6609;49.882;8.664;2022-08-03T17:06:42;32.80;19.40
13086;DHT22;6609;49.882;8.664;2022-08-03T17:09:11;32.70;19.30
13086;DHT22;6609;49.882;8.664;2022-08-03T17:14:05;32.70;19.10
13086;DHT22;6609;49.882;8.664;2022-08-03T17:16:32;32.70;19.00
13086;DHT22;6609;49.882;8.664;2022-08-03T17:19:02;32.60;19.90
13086;DHT22;6609;49.882;8.664;2022-08-03T17:21:34;32.60;20.10
13086;DHT22;6609;49.882;8.664;2022-08-03T17:24:08;32.50;19.40
13086;DHT22;6609;49.882;8.664;2022-08-03T17:26:39;32.50;19.10
13086;DHT22;6609;49.882;8.664;2022-08-03T17:29:08;32.50;20.10
13086;DHT22;6609;49.882;8.664;2022-08-03T17:34:04;32.30;20.20
13086;DHT22;6609;49.882;8.664;2022-08-03T17:36:32;32.30;20.00
13086;DHT22;6609;49.882;8.664;2022-08-03T17:38:59;32.30;21.50
13086;DHT22;6609;49.882;8.664;2022-08-03T17:41:30;32.20;21.20
13086;DHT22;6609;49.882;8.664;2022-08-03T17:43:58;32.10;21.10
13086;DHT22;6609;49.882;8.664;2022-08-03T17:51:22;32.00;22.70
13086;DHT22;6609;49.882;8.664;2022-08-03T17:53:59;32.00;23.60
13086;DHT22;6609;49.882;8.664;2022-08-03T17:56:34;31.90;23.30
13086;DHT22;6609;49.882;8.664;2022-08-03T17:59:12;31.80;24.40
13086;DHT22;6609;49.882;8.664;2022-08-03T18:01:43;31.70;24.50
13086;DHT22;6609;49.882;8.664;2022-08-03T18:07:02;31.60;25.70
13086;DHT22;6609;49.882;8.664;2022-08-03T18:09:31;31.40;26.30
13086;DHT22;6609;49.882;8.664;2022-08-03T18:12:00;31.40;26.70
13086;DHT22;6609;49.882;8.664;2022-08-03T18:14:36;31.30;27.20
13086;DHT22;6609;49.882;8.664;2022-08-03T18:17:05;31.20;27.90
13086;DHT22;6609;49.882;8.664;2022-08-03T18:19:33;31.20;28.20
13086;DHT22;6609;49.882;8.664;2022-08-03T18:24:28;31.00;27.60
13086;DHT22;6609;49.882;8.664;2022-08-03T18:26:58;31.00;29.00
13086;DHT22;6609;49.882;8.664;2022-08-03T18:29:26;30.90;29.10
13086;DHT22;6609;49.882;8.664;2022-08-03T18:31:58;30.80;29.10
13086;DHT22;6609;49.882;8.664;2022-08-03T18:39:19;30.70;29.20
13086;DHT22;6609;49.882;8.664;2022-08-03T18:44:14;30.50;28.80
13086;DHT22;6609;49.882;8.664;2022-08-03T18:46:48;30.50;29.00
13086;DHT22;6609;49.882;8.664;2022-08-03T18:49:26;30.40;28.80
13086;DHT22;6609;49.882;8.664;2022-08-03T18:52:02;30.40;28.80
13086;DHT22;6609;49.882;8.664;2022-08-03T18:54:35;30.30;28.80
13086;DHT22;6609;49.882;8.664;2022-08-03T18:59:41;30.10;29.20
13086;DHT22;6609;49.882;8.664;2022-08-03T19:02:23;30.00;29.40
13086;DHT22;6609;49.882;8.664;2022-08-03T19:04:52;29.90;29.40
13086;DHT22;6609;49.882;8.664;2022-08-03T19:07:24;29.80;29.80
13086;DHT22;6609;49.882;8.664;2022-08-03T19:09:52;29.70;29.80
13086;DHT22;6609;49.882;8.664;2022-08-03T19:12:22;29.60;29.90
13086;DHT22;6609;49.882;8.664;2022-08-03T19:14:55;29.50;30.10
13086;DHT22;6609;49.882;8.664;2022-08-03T19:17:23;29.40;30.10
13086;DHT22;6609;49.882;8.664;2022-08-03T19:19:52;29.20;30.20
13086;DHT22;6609;49.882;8.664;2022-08-03T19:22:20;29.10;30.80
13086;DHT22;6609;49.882;8.664;2022-08-03T19:24:47;29.10;31.00
13086;DHT22;6609;49.882;8.664;2022-08-03T19:27:16;29.00;31.20
13086;DHT22;6609;49.882;8.664;2022-08-03T19:29:46;28.90;31.50
13086;DHT22;6609;49.882;8.664;2022-08-03T19:32:15;28.80;31.90
13086;DHT22;6609;49.882;8.664;2022-08-03T19:34:43;28.80;32.40
13086;DHT22;6609;49.882;8.664;2022-08-03T19:37:12;28.70;32.80
13086;DHT22;6609;49.882;8.664;2022-08-03T19:42:09;28.50;33.60
13086;DHT22;6609;49.882;8.664;2022-08-03T19:44:39;28.40;33.90
13086;DHT22;6609;49.882;8.664;2022-08-03T19:47:10;28.30;34.30
13086;DHT22;6609;49.882;8.664;2022-08-03T19:49:39;28.20;34.60
13086;DHT22;6609;49.882;8.664;2022-08-03T19:52:09;28.10;35.00
13086;DHT22;6609;49.882;8.664;2022-08-03T19:57:05;27.90;35.70
13086;DHT22;6609;49.882;8.664;2022-08-03T19:59:34;27.90;35.70
13086;DHT22;6609;49.882;8.664;2022-08-03T20:02:02;27.70;35.90
13086;DHT22;6609;49.882;8.664;2022-08-03T20:04:29;27.70;36.50
13086;DHT22;6609;49.882;8.664;2022-08-03T20:06:58;27.60;36.70
13086;DHT22;6609;49.882;8.664;2022-08-03T20:09:25;27.60;37.20
13086;DHT22;6609;49.882;8.664;2022-08-03T20:14:21;27.50;37.50
13086;DHT22;6609;49.882;8.664;2022-08-03T20:16:50;27.30;37.60
13086;DHT22;6609;49.882;8.664;2022-08-03T20:19:17;27.40;37.80
13086;DHT22;6609;49.882;8.664;2022-08-03T20:21:47;27.30;38.00
13086;DHT22;6609;49.882;8.664;2022-08-03T20:24:19;27.30;38.30
13086;DHT22;6609;49.882;8.664;2022-08-03T20:26:51;27.10;38.90
13086;DHT22;6609;49.882;8.664;2022-08-03T20:29:22;27.10;39.40
13086;DHT22;6609;49.882;8.664;2022-08-03T20:31:50;27.00;39.60
13086;DHT22;6609;49.882;8.664;2022-08-03T20:34:17;27.00;39.90
13086;DHT22;6609;49.882;8.664;2022-08-03T20:36:43;26.90;40.30
13086;DHT22;6609;49.882;8.664;2022-08-03T20:39:10;26.80;40.40
13086;DHT22;6609;49.882;8.664;2022-08-03T20:41:39;26.80;40.70
13086;DHT22;6609;49.882;8.664;2022-08-03T20:44:06;26.70;41.00
13086;DHT22;6609;49.882;8.664;2022-08-03T20:49:01;26.60;40.80
13086;DHT22;6609;49.882;8.664;2022-08-03T20:51:28;26.60;41.10
13086;DHT22;6609;49.882;8.664;2022-08-03T20:53:56;26.60;41.10
13086;DHT22;6609;49.882;8.664;2022-08-03T20:58:54;26.50;41.60
13086;DHT22;6609;49.882;8.664;2022-08-03T21:01:20;26.40;41.90
13086;DHT22;6609;49.882;8.664;2022-08-03T21:06:17;26.20;42.10
13086;DHT22;6609;49.882;8.664;2022-08-03T21:08:47;26.20;42.10
13086;DHT22;6609;49.882;8.664;2022-08-03T21:11:16;26.20;42.10
13086;DHT22;6609;49.882;8.664;2022-08-03T21:13:47;26.20;42.10
13086;DHT22;6609;49.882;8.664;2022-08-03T21:16:19;26.10;42.10
13086;DHT22;6609;49.882;8.664;2022-08-03T21:18:52;26.00;42.30
13086;DHT22;6609;49.882;8.664;2022-08-03T21:21:20;25.90;42.20
13086;DHT22;6609;49.882;8.664;2022-08-03T21:23:50;25.90;42.20
13086;DHT22;6609;49.882;8.664;2022-08-03T21:26:18;25.80;42.20
13086;DHT22;6609;49.882;8.664;2022-08-03T21:31:13;25.80;42.20
13086;DHT22;6609;49.882;8.664;2022-08-03T21:33:42;25.70;42.10
13086;DHT22;6609;49.882;8.664;2022-08-03T21:38:36;25.60;43.00
13086;DHT22;6609;49.882;8.664;2022-08-03T21:41:02;25.60;43.00
13086;DHT22;6609;49.882;8.664;2022-08-03T21:43:29;25.60;43.60
13086;DHT22;6609;49.882;8.664;2022-08-03T21:45:58;25.60;44.00
13086;DHT22;6609;49.882;8.664;2022-08-03T21:48:26;25.50;44.40